createdAt,value
2023-05-06T00:04:16.199Z,7.93
2023-05-06T00:09:17.893Z,10.18
2023-05-06T00:14:19.316Z,9.20
2023-05-06T00:19:20.886Z,11.10
2023-05-06T00:24:22.311Z,9.85
2023-05-06T00:29:24.034Z,10.95
2023-05-06T00:34:25.519Z,11.15
2023-05-06T00:39:26.983Z,11.32
2023-05-06T00:44:29.142Z,8.63
2023-05-06T00:49:30.980Z,9.70
2023-05-06T00:54:32.553Z,9.27
2023-05-06T00:59:33.970Z,9.60
2023-05-06T01:04:36.057Z,9.80
2023-05-06T01:10:00.077Z,8.95
2023-05-06T01:15:14.859Z,7.03
2023-05-06T01:20:17.890Z,9.55
2023-05-06T01:25:21.287Z,9.65
2023-05-06T01:30:23.813Z,12.57
2023-05-06T01:35:58.490Z,12.77
2023-05-06T01:41:01.723Z,9.63
2023-05-06T01:46:03.645Z,8.98
2023-05-06T01:51:05.539Z,7.93
2023-05-06T01:56:07.520Z,8.32
2023-05-06T02:01:08.975Z,8.88
2023-05-06T02:06:10.750Z,9.55
2023-05-06T02:11:12.289Z,9.23
2023-05-06T02:16:13.758Z,12.15
2023-05-06T02:21:15.247Z,8.13
2023-05-06T02:26:16.722Z,11.10
2023-05-06T02:31:18.157Z,9.45
2023-05-06T02:36:19.584Z,9.20
2023-05-06T02:41:21.330Z,10.68
2023-05-06T02:46:23.021Z,11.82
2023-05-06T02:51:24.576Z,8.40
2023-05-06T02:56:26.118Z,8.88
2023-05-06T03:01:27.611Z,10.38
2023-05-06T03:06:29.082Z,10.55
2023-05-06T03:11:31.544Z,9.93
2023-05-06T03:16:33.154Z,7.95
2023-05-06T03:21:34.703Z,10.35
2023-05-06T03:26:36.206Z,10.88
2023-05-06T03:31:37.780Z,10.35
2023-05-06T03:36:39.307Z,10.32
2023-05-06T03:41:40.802Z,7.53
2023-05-06T03:46:42.386Z,10.43
2023-05-06T03:51:43.902Z,16.38
2023-05-06T03:56:45.336Z,8.38
2023-05-06T04:01:46.877Z,8.60
2023-05-06T04:06:48.343Z,11.43
2023-05-06T04:11:49.778Z,9.10
2023-05-06T04:16:51.228Z,11.30
2023-05-06T04:21:52.652Z,11.38
2023-05-06T04:26:54.149Z,10.77
2023-05-06T04:31:55.766Z,8.60
2023-05-06T04:36:58.590Z,8.65
2023-05-06T04:42:00.094Z,10.77
2023-05-06T04:47:01.621Z,10.40
2023-05-06T04:52:04.401Z,11.82
2023-05-06T04:57:05.918Z,9.20
2023-05-06T05:02:07.369Z,10.13
2023-05-06T05:07:09.001Z,12.45
2023-05-06T05:12:10.409Z,8.27
2023-05-06T05:17:11.894Z,7.85
2023-05-06T05:22:13.374Z,9.50
2023-05-06T05:27:14.838Z,7.35
2023-05-06T05:32:16.432Z,9.60
2023-05-06T05:37:17.859Z,8.80
2023-05-06T05:42:20.092Z,7.35
2023-05-06T05:47:21.863Z,8.88
2023-05-06T05:52:23.390Z,9.63
2023-05-06T05:57:24.867Z,9.73
2023-05-06T06:02:26.563Z,8.48
2023-05-06T06:07:28.121Z,8.20
2023-05-06T06:12:29.573Z,8.90
2023-05-06T06:17:31.090Z,9.57
2023-05-06T06:22:32.532Z,8.75
2023-05-06T06:27:36.063Z,8.27
2023-05-06T06:32:47.641Z,8.60
2023-05-06T06:37:49.322Z,9.20
2023-05-06T06:42:51.210Z,10.80
2023-05-06T06:47:53.638Z,9.55
2023-05-06T06:52:55.118Z,7.55
2023-05-06T06:57:56.554Z,11.73
2023-05-06T07:02:58.080Z,7.80
2023-05-06T07:07:59.541Z,8.15
2023-05-06T07:13:01.090Z,12.55
2023-05-06T07:18:02.613Z,13.82
2023-05-06T07:23:04.092Z,9.10
2023-05-06T07:28:05.784Z,11.18
2023-05-06T07:33:07.685Z,10.77
2023-05-06T07:38:09.208Z,17.30
2023-05-06T07:43:10.705Z,12.07
2023-05-06T07:48:12.499Z,12.00
2023-05-06T07:53:14.025Z,16.40
2023-05-06T07:58:15.815Z,9.40
2023-05-06T08:03:17.352Z,10.00
2023-05-06T08:08:19.924Z,9.98
2023-05-06T08:13:21.687Z,12.15
2023-05-06T08:18:23.554Z,11.05
2023-05-06T08:23:25.056Z,9.52
2023-05-06T08:28:26.552Z,12.50
2023-05-06T08:33:30.887Z,14.15
2023-05-06T08:38:32.374Z,12.02
2023-05-06T08:43:40.113Z,11.98
2023-05-06T08:48:41.597Z,14.48
2023-05-06T08:53:48.222Z,12.88
2023-05-06T08:58:52.014Z,14.23
2023-05-06T09:03:55.928Z,11.93
2023-05-06T09:08:57.688Z,11.13
2023-05-06T09:14:12.348Z,14.82
2023-05-06T09:19:14.789Z,14.05
2023-05-06T09:24:17.166Z,15.60
2023-05-06T09:29:18.640Z,12.20
2023-05-06T09:34:21.160Z,15.93
2023-05-06T09:39:26.609Z,10.13
2023-05-06T09:44:29.000Z,10.75
2023-05-06T09:49:30.581Z,12.43
2023-05-06T09:54:32.661Z,11.30
2023-05-06T09:59:34.680Z,12.73
2023-05-06T10:04:38.481Z,12.02
2023-05-06T10:09:41.798Z,10.07
2023-05-06T10:14:43.226Z,14.07
2023-05-06T10:19:52.303Z,14.63
2023-05-06T10:30:10.301Z,13.43
2023-05-06T10:35:17.601Z,11.10
2023-05-06T10:40:19.591Z,13.30
2023-05-06T10:45:21.278Z,12.05
2023-05-06T10:50:24.047Z,13.05
2023-05-06T10:55:32.815Z,14.35
2023-05-06T11:00:34.806Z,12.48
2023-05-06T11:05:50.608Z,11.15
2023-05-06T11:10:53.046Z,13.93
2023-05-06T11:15:55.821Z,12.07
2023-05-06T11:21:00.526Z,11.00
2023-05-06T11:26:07.190Z,12.73
2023-05-06T11:31:09.806Z,11.88
2023-05-06T11:36:15.330Z,11.57
2023-05-06T11:41:17.694Z,11.73
2023-05-06T11:46:20.622Z,13.65
2023-05-06T11:51:23.197Z,11.90
2023-05-06T11:56:25.032Z,13.93
2023-05-06T12:01:26.474Z,11.93
2023-05-06T12:06:34.288Z,13.25
2023-05-06T12:11:36.627Z,13.93
2023-05-06T12:16:38.708Z,12.48
2023-05-06T12:21:40.302Z,12.63
2023-05-06T12:26:49.282Z,12.45
2023-05-06T12:37:11.454Z,11.88
2023-05-06T12:42:20.450Z,13.75
2023-05-06T12:52:29.874Z,12.55
2023-05-06T12:57:31.476Z,15.25
2023-05-06T13:02:32.990Z,12.48
2023-05-06T13:07:34.501Z,17.48
2023-05-06T13:12:36.273Z,23.15
2023-05-06T13:17:37.868Z,13.93
2023-05-06T13:22:53.326Z,11.38
2023-05-06T13:27:56.031Z,15.43
2023-05-06T13:32:57.829Z,12.55
2023-05-06T13:37:59.641Z,28.63
2023-05-06T13:43:01.100Z,14.23
2023-05-06T13:48:02.700Z,17.27
2023-05-06T13:53:04.414Z,13.35
2023-05-06T13:58:07.033Z,14.15
2023-05-06T14:03:08.590Z,12.98
2023-05-06T14:08:10.226Z,19.52
2023-05-06T14:13:11.789Z,15.02
2023-05-06T14:18:13.348Z,14.15
2023-05-06T14:23:14.824Z,16.10
2023-05-06T14:28:16.395Z,15.27
2023-05-06T14:33:17.817Z,14.60
2023-05-06T14:38:19.930Z,16.13
2023-05-06T14:43:21.494Z,15.55
2023-05-06T14:48:25.289Z,13.85
2023-05-06T14:53:26.738Z,13.07
2023-05-06T14:58:28.215Z,14.30
2023-05-06T15:03:29.660Z,16.77
2023-05-06T15:08:31.478Z,18.65
2023-05-06T15:13:32.942Z,19.77
2023-05-06T15:18:34.358Z,19.98
2023-05-06T15:23:35.810Z,21.52
2023-05-06T15:28:37.234Z,21.15
2023-05-06T15:33:38.654Z,20.35
2023-05-06T15:38:51.927Z,18.98
2023-05-06T15:43:55.996Z,16.83
2023-05-06T15:49:15.656Z,16.17
2023-05-06T15:54:19.179Z,16.60
2023-05-06T15:59:20.624Z,14.82
2023-05-06T16:04:22.608Z,14.52
2023-05-06T16:09:24.449Z,15.43
2023-05-06T16:14:25.855Z,16.20
2023-05-06T16:19:27.339Z,16.50
2023-05-06T16:24:28.795Z,12.70
2023-05-06T16:29:30.328Z,16.15
2023-05-06T16:34:31.872Z,15.80
2023-05-06T16:39:33.306Z,17.73
2023-05-06T16:44:35.130Z,16.90
2023-05-06T16:49:36.576Z,12.57
2023-05-06T16:54:38.125Z,15.52
2023-05-06T16:59:39.574Z,14.18
2023-05-06T17:04:41.413Z,15.85
2023-05-06T17:09:43.263Z,12.98
2023-05-06T17:14:44.808Z,11.70
2023-05-06T17:19:46.241Z,10.20
2023-05-06T17:24:47.717Z,11.52
2023-05-06T17:29:49.190Z,11.35
2023-05-06T17:34:50.675Z,11.75
2023-05-06T17:39:53.274Z,9.70
2023-05-06T17:44:54.832Z,7.95
2023-05-06T17:49:56.423Z,6.45
2023-05-06T17:55:16.504Z,7.13
2023-05-06T18:00:19.288Z,9.73
2023-05-06T18:05:21.767Z,8.80
2023-05-06T18:10:23.243Z,9.25
2023-05-06T18:15:25.746Z,7.80
2023-05-06T18:20:27.311Z,6.32
2023-05-06T18:25:28.727Z,7.90
2023-05-06T18:30:30.353Z,7.07
2023-05-06T18:35:31.764Z,7.55
2023-05-06T18:40:34.014Z,8.65
2023-05-06T18:45:35.540Z,7.53
2023-05-06T18:50:37.374Z,7.35
2023-05-06T18:55:38.783Z,8.95
2023-05-06T19:00:40.924Z,9.63
2023-05-06T19:05:42.457Z,7.80
2023-05-06T19:10:43.900Z,8.52
2023-05-06T19:15:45.473Z,8.68
2023-05-06T19:20:46.930Z,8.73
2023-05-06T19:25:48.378Z,8.65
2023-05-06T19:30:49.813Z,10.60
2023-05-06T19:35:51.571Z,10.98
2023-05-06T19:40:53.615Z,8.43
2023-05-06T19:45:55.237Z,9.13
2023-05-06T19:50:56.688Z,6.97
2023-05-06T19:55:59.285Z,9.43
2023-05-06T20:01:00.742Z,8.93
2023-05-06T20:06:02.409Z,9.20
2023-05-06T20:11:04.220Z,7.18
2023-05-06T20:16:05.955Z,9.10
2023-05-06T20:21:07.453Z,12.32
2023-05-06T20:26:08.911Z,9.98
2023-05-06T20:31:10.756Z,9.80
2023-05-06T20:36:12.319Z,7.53
2023-05-06T20:41:13.719Z,8.18
2023-05-06T20:46:15.209Z,12.30
2023-05-06T20:51:16.898Z,9.68
2023-05-06T20:56:24.796Z,9.60
2023-05-06T21:01:27.342Z,8.23
2023-05-06T21:06:28.947Z,8.70
2023-05-06T21:11:30.374Z,7.95
2023-05-06T21:16:31.821Z,10.68
2023-05-06T21:21:33.562Z,9.18
2023-05-06T21:26:35.709Z,9.15
2023-05-06T21:31:37.396Z,8.93
2023-05-06T21:36:38.943Z,8.88
2023-05-06T21:41:40.522Z,9.30
2023-05-06T21:46:41.994Z,9.98
2023-05-06T21:51:43.521Z,7.57
2023-05-06T21:56:44.946Z,7.82
2023-05-06T22:01:46.379Z,8.15
2023-05-06T22:06:47.829Z,7.55
2023-05-06T22:11:49.732Z,6.93
2023-05-06T22:16:52.727Z,6.90
2023-05-06T22:21:54.452Z,10.10
2023-05-06T22:26:55.955Z,6.90
2023-05-06T22:31:57.460Z,6.07
2023-05-06T22:37:00.482Z,8.73
2023-05-06T22:42:02.575Z,8.63
2023-05-06T22:47:04.034Z,6.75
2023-05-06T22:52:05.609Z,6.93
2023-05-06T22:57:07.205Z,7.57
2023-05-06T23:02:08.713Z,7.47
2023-05-06T23:07:10.244Z,6.80
2023-05-06T23:12:11.706Z,6.22
2023-05-06T23:17:13.157Z,6.00
2023-05-06T23:22:14.645Z,5.95
2023-05-06T23:27:16.060Z,8.20
2023-05-06T23:32:17.698Z,7.80
2023-05-06T23:37:19.155Z,7.88
2023-05-06T23:42:21.286Z,6.10
2023-05-06T23:47:24.517Z,5.90
2023-05-06T23:52:26.075Z,5.60
2023-05-06T23:57:27.526Z,8.93
